createdAt,value
2018-07-07T00:00:16.987Z,82.10
2018-07-07T00:01:20.549Z,82.80
2018-07-07T00:02:24.656Z,83.10
2018-07-07T00:03:28.219Z,84.50
2018-07-07T00:04:31.804Z,84.10
2018-07-07T00:05:35.542Z,84.60
2018-07-07T00:06:39.033Z,84.50
2018-07-07T00:08:46.198Z,84.80
2018-07-07T00:10:57.903Z,85.40
2018-07-07T00:12:02.104Z,86.00
2018-07-07T00:13:05.653Z,86.20
2018-07-07T00:14:09.233Z,85.60
2018-07-07T00:15:14.142Z,86.20
2018-07-07T00:16:17.750Z,85.20
2018-07-07T00:17:21.312Z,85.90
2018-07-07T00:18:24.915Z,86.30
2018-07-07T00:19:28.745Z,86.00
2018-07-07T00:20:32.318Z,85.20
2018-07-07T00:21:36.052Z,86.20
2018-07-07T00:22:39.694Z,85.90
2018-07-07T00:23:43.205Z,85.90
2018-07-07T00:24:47.118Z,85.40
2018-07-07T00:25:50.692Z,86.40
2018-07-07T00:26:54.268Z,86.10
2018-07-07T00:27:57.766Z,86.80
2018-07-07T00:29:01.330Z,87.80
2018-07-07T00:30:04.983Z,88.10
2018-07-07T00:31:08.881Z,87.70
2018-07-07T00:32:12.918Z,88.10
2018-07-07T00:33:16.456Z,88.30
2018-07-07T00:35:23.270Z,90.00
2018-07-07T00:36:27.013Z,89.20
2018-07-07T00:37:30.531Z,89.10
2018-07-07T00:38:34.239Z,89.50
2018-07-07T00:39:38.289Z,90.30
2018-07-07T00:40:41.873Z,90.50
2018-07-07T00:41:45.987Z,90.20
2018-07-07T00:42:49.745Z,90.70
2018-07-07T00:43:54.194Z,90.90
2018-07-07T00:44:58.252Z,90.30
2018-07-07T00:46:01.858Z,90.90
2018-07-07T00:47:06.220Z,90.90
2018-07-07T00:48:09.754Z,90.60
2018-07-07T00:49:13.597Z,90.50
2018-07-07T00:50:17.121Z,90.90
2018-07-07T00:51:21.167Z,90.80
2018-07-07T00:52:24.912Z,90.90
2018-07-07T00:53:28.630Z,91.10
2018-07-07T00:54:32.918Z,91.50
2018-07-07T00:55:36.481Z,91.20
2018-07-07T00:56:40.420Z,91.40
2018-07-07T00:57:44.883Z,91.70
2018-07-07T00:58:48.857Z,91.40
2018-07-07T00:59:52.766Z,91.60
2018-07-07T01:00:56.588Z,91.70
2018-07-07T01:02:00.142Z,92.40
2018-07-07T01:03:04.167Z,91.80
2018-07-07T01:04:07.707Z,92.40
2018-07-07T01:05:44.925Z,92.30
2018-07-07T01:06:49.129Z,92.30
2018-07-07T01:07:52.693Z,92.50
2018-07-07T01:08:56.296Z,93.00
2018-07-07T01:09:59.911Z,93.10
2018-07-07T01:11:04.133Z,93.10
2018-07-07T01:12:07.862Z,92.80
2018-07-07T01:13:11.454Z,92.60
2018-07-07T01:14:15.014Z,92.60
2018-07-07T01:15:18.620Z,92.70
2018-07-07T01:16:22.168Z,92.90
2018-07-07T01:17:25.729Z,93.50
2018-07-07T01:18:29.295Z,92.90
2018-07-07T01:19:32.882Z,93.00
2018-07-07T01:20:36.460Z,93.20
2018-07-07T01:21:40.494Z,93.10
2018-07-07T01:22:44.093Z,93.40
2018-07-07T01:23:47.571Z,93.30
2018-07-07T01:24:51.070Z,93.40
2018-07-07T01:25:54.636Z,93.70
2018-07-07T01:26:58.366Z,93.80
2018-07-07T01:29:05.489Z,94.00
2018-07-07T01:30:09.124Z,94.00
2018-07-07T01:31:13.219Z,94.40
2018-07-07T01:32:16.673Z,94.20
2018-07-07T01:33:20.193Z,94.30
2018-07-07T01:34:23.762Z,94.60
2018-07-07T01:35:28.030Z,94.30
2018-07-07T01:36:31.601Z,94.70
2018-07-07T01:37:35.144Z,94.80
2018-07-07T01:38:38.616Z,94.90
2018-07-07T01:39:42.232Z,94.80
2018-07-07T01:40:45.779Z,95.00
2018-07-07T01:41:49.312Z,95.60
2018-07-07T01:42:52.913Z,95.40
2018-07-07T01:43:56.981Z,95.50
2018-07-07T01:45:00.504Z,95.70
2018-07-07T01:46:04.798Z,95.90
2018-07-07T01:47:08.286Z,95.80
2018-07-07T01:48:12.889Z,95.90
2018-07-07T01:49:16.459Z,96.00
2018-07-07T01:50:20.298Z,96.30
2018-07-07T01:51:23.770Z,96.00
2018-07-07T01:52:27.257Z,96.10
2018-07-07T01:53:30.755Z,96.30
2018-07-07T01:54:34.221Z,96.10
2018-07-07T01:55:38.062Z,95.80
2018-07-07T01:56:41.659Z,95.70
2018-07-07T01:57:45.423Z,95.70
2018-07-07T01:58:48.877Z,95.80
2018-07-07T01:59:52.328Z,96.00
2018-07-07T02:00:55.777Z,95.80
2018-07-07T02:01:59.347Z,95.90
2018-07-07T02:03:02.940Z,95.60
2018-07-07T02:04:06.513Z,95.90
2018-07-07T02:05:10.017Z,95.70
2018-07-07T02:06:14.161Z,95.70
2018-07-07T02:07:17.695Z,96.20
2018-07-07T02:08:21.362Z,96.30
2018-07-07T02:09:24.820Z,96.30
2018-07-07T02:10:28.423Z,96.80
2018-07-07T02:11:31.883Z,96.90
2018-07-07T02:12:35.438Z,96.80
2018-07-07T02:13:38.970Z,96.60
2018-07-07T02:14:42.435Z,97.20
2018-07-07T02:15:45.900Z,97.00
2018-07-07T02:16:49.388Z,97.10
2018-07-07T02:17:52.923Z,97.40
2018-07-07T02:18:56.365Z,97.80
2018-07-07T02:19:59.815Z,97.80
2018-07-07T02:21:03.357Z,97.70
2018-07-07T02:22:06.824Z,97.50
2018-07-07T02:24:13.595Z,98.20
2018-07-07T02:25:17.138Z,98.60
2018-07-07T02:26:20.752Z,98.30
2018-07-07T02:27:24.869Z,99.00
2018-07-07T02:28:29.061Z,99.00
2018-07-07T02:29:32.566Z,99.40
2018-07-07T02:30:36.342Z,99.90
2018-07-07T02:31:39.803Z,99.40
2018-07-07T02:32:43.276Z,99.60
2018-07-07T02:33:46.845Z,99.90
2018-07-07T02:34:50.305Z,99.90
2018-07-07T02:35:53.761Z,99.90
2018-07-07T02:36:57.264Z,99.90
2018-07-07T02:38:00.715Z,99.90
2018-07-07T02:39:05.793Z,99.90
2018-07-07T02:40:09.248Z,99.90
2018-07-07T02:41:12.974Z,99.90
2018-07-07T02:42:16.746Z,99.90
2018-07-07T02:43:20.230Z,99.90
2018-07-07T02:44:23.710Z,99.90
2018-07-07T02:45:27.203Z,99.90
2018-07-07T02:46:30.728Z,99.90
2018-07-07T02:47:34.188Z,99.90
2018-07-07T02:48:37.675Z,99.90
2018-07-07T02:49:41.259Z,99.90
2018-07-07T02:50:44.941Z,99.90
2018-07-07T02:51:48.409Z,99.90
2018-07-07T02:52:51.968Z,99.90
2018-07-07T02:53:55.592Z,99.90
2018-07-07T02:54:59.117Z,99.90
2018-07-07T02:56:02.815Z,99.90
2018-07-07T02:57:06.300Z,99.90
2018-07-07T02:58:09.808Z,99.90
2018-07-07T02:59:13.810Z,99.90
2018-07-07T03:00:17.373Z,99.90
2018-07-07T03:01:21.545Z,99.90
2018-07-07T03:02:25.377Z,99.90
2018-07-07T03:03:29.106Z,99.90
2018-07-07T03:04:33.205Z,99.90
2018-07-07T03:05:36.750Z,99.90
2018-07-07T03:06:40.848Z,99.90
2018-07-07T03:07:45.040Z,99.90
2018-07-07T03:08:49.243Z,99.90
2018-07-07T03:09:52.821Z,99.90
2018-07-07T03:10:56.654Z,99.90
2018-07-07T03:12:00.130Z,99.90
2018-07-07T03:13:03.789Z,99.90
2018-07-07T03:14:07.460Z,99.90
2018-07-07T03:15:16.442Z,99.90
2018-07-07T03:16:20.052Z,99.90
2018-07-07T03:17:23.522Z,99.90
2018-07-07T03:18:27.024Z,99.90
2018-07-07T03:19:30.489Z,99.90
2018-07-07T03:20:34.014Z,99.90
2018-07-07T03:21:38.060Z,99.90
2018-07-07T03:22:41.679Z,99.90
2018-07-07T03:23:45.352Z,99.90
2018-07-07T03:24:48.892Z,99.90
2018-07-07T03:25:52.744Z,99.90
2018-07-07T03:26:56.302Z,99.90
2018-07-07T03:27:59.781Z,99.90
2018-07-07T03:29:03.662Z,99.90
2018-07-07T03:30:07.620Z,99.90
2018-07-07T03:31:11.174Z,99.90
2018-07-07T03:32:14.648Z,99.90
2018-07-07T03:33:18.168Z,99.90
2018-07-07T03:34:21.737Z,99.90
2018-07-07T03:35:25.237Z,99.90
2018-07-07T03:36:28.956Z,99.90
2018-07-07T03:37:32.427Z,99.90
2018-07-07T03:38:35.899Z,99.90
2018-07-07T03:39:39.708Z,99.90
2018-07-07T03:40:43.145Z,99.90
2018-07-07T03:41:46.621Z,99.90
2018-07-07T03:42:50.076Z,99.90
2018-07-07T03:43:53.661Z,99.90
2018-07-07T03:44:57.658Z,99.90
2018-07-07T03:46:01.186Z,99.90
2018-07-07T03:47:05.047Z,99.90
2018-07-07T03:48:08.551Z,99.90
2018-07-07T03:49:12.228Z,99.90
2018-07-07T03:50:15.685Z,99.90
2018-07-07T03:51:19.149Z,99.90
2018-07-07T03:52:23.167Z,99.90
2018-07-07T03:54:29.925Z,99.90
2018-07-07T03:55:33.513Z,99.90
2018-07-07T03:56:37.044Z,99.90
2018-07-07T03:57:40.589Z,99.90
2018-07-07T03:58:44.183Z,99.90
2018-07-07T03:59:47.611Z,99.90
2018-07-07T04:00:51.906Z,99.90
2018-07-07T04:01:55.398Z,99.90
2018-07-07T04:02:58.875Z,99.90
2018-07-07T04:04:02.328Z,99.90
2018-07-07T04:05:05.963Z,99.90
2018-07-07T04:06:09.515Z,99.90
2018-07-07T04:07:13.138Z,99.90
2018-07-07T04:08:16.600Z,99.90
2018-07-07T04:09:20.059Z,99.90
2018-07-07T04:10:23.583Z,99.80
2018-07-07T04:11:27.138Z,99.40
2018-07-07T04:12:30.688Z,98.50
2018-07-07T04:13:34.162Z,98.20
2018-07-07T04:14:37.690Z,97.70
2018-07-07T04:15:41.356Z,97.30
2018-07-07T04:16:44.850Z,96.70
2018-07-07T04:17:48.368Z,96.20
2018-07-07T04:18:51.988Z,95.90
2018-07-07T04:19:55.486Z,95.50
2018-07-07T04:20:59.245Z,95.20
2018-07-07T04:22:02.792Z,95.30
2018-07-07T04:23:06.733Z,95.10
2018-07-07T04:24:10.331Z,95.50
2018-07-07T04:25:14.058Z,95.20
2018-07-07T04:26:17.521Z,95.40
2018-07-07T04:27:20.988Z,95.10
2018-07-07T04:28:24.901Z,95.20
2018-07-07T04:29:28.593Z,95.30
2018-07-07T04:30:32.162Z,95.30
2018-07-07T04:31:35.645Z,95.50
2018-07-07T04:32:39.223Z,94.40
2018-07-07T04:33:42.909Z,94.00
2018-07-07T04:34:46.360Z,94.30
2018-07-07T04:36:53.606Z,93.90
2018-07-07T04:37:57.185Z,93.40
2018-07-07T04:39:00.661Z,92.70
2018-07-07T04:40:04.380Z,93.10
2018-07-07T04:41:07.859Z,91.90
2018-07-07T04:42:11.417Z,92.20
2018-07-07T04:43:15.095Z,91.80
2018-07-07T04:44:18.598Z,91.30
2018-07-07T04:45:22.224Z,91.20
2018-07-07T04:46:25.841Z,91.40
2018-07-07T04:47:29.404Z,90.40
2018-07-07T04:48:32.911Z,90.70
2018-07-07T04:49:36.509Z,90.60
2018-07-07T04:50:40.502Z,91.50
2018-07-07T04:51:44.364Z,91.80
2018-07-07T04:52:47.898Z,92.00
2018-07-07T04:53:51.405Z,92.20
2018-07-07T04:54:54.909Z,92.70
2018-07-07T04:55:58.608Z,92.60
2018-07-07T04:57:02.052Z,92.40
2018-07-07T04:58:05.603Z,91.90
2018-07-07T04:59:09.692Z,91.60
2018-07-07T05:00:13.459Z,91.00
2018-07-07T05:01:17.115Z,91.50
2018-07-07T05:02:20.658Z,90.80
2018-07-07T05:03:24.202Z,90.10
2018-07-07T05:04:27.817Z,90.40
2018-07-07T05:05:31.505Z,90.20
2018-07-07T05:06:35.195Z,89.70
2018-07-07T05:07:38.758Z,89.70
2018-07-07T05:08:42.889Z,88.60
2018-07-07T05:09:46.904Z,89.00
2018-07-07T05:11:53.921Z,88.40
2018-07-07T05:12:57.463Z,88.60
2018-07-07T05:14:01.738Z,88.30
2018-07-07T05:15:05.383Z,89.00
2018-07-07T05:16:09.922Z,87.50
2018-07-07T05:17:14.038Z,88.00
2018-07-07T05:18:17.502Z,87.80
2018-07-07T05:19:21.178Z,88.10
2018-07-07T05:20:24.678Z,88.30
2018-07-07T05:21:28.324Z,87.60
2018-07-07T05:22:32.113Z,86.20
2018-07-07T05:23:36.309Z,88.40
2018-07-07T05:24:39.812Z,88.40
2018-07-07T05:25:43.280Z,88.60
2018-07-07T05:26:47.412Z,89.90
2018-07-07T05:27:50.875Z,90.40
2018-07-07T05:28:54.451Z,90.60
2018-07-07T05:29:58.393Z,90.50
2018-07-07T05:32:05.208Z,90.70
2018-07-07T05:33:08.635Z,90.60
2018-07-07T05:34:12.276Z,90.80
2018-07-07T05:35:15.981Z,91.00
2018-07-07T05:36:20.207Z,90.80
2018-07-07T05:37:23.762Z,91.00
2018-07-07T05:38:27.320Z,91.40
2018-07-07T05:40:34.970Z,91.20
2018-07-07T05:41:38.451Z,91.00
2018-07-07T05:42:41.919Z,90.60
2018-07-07T05:43:45.426Z,90.30
2018-07-07T05:44:49.063Z,90.30
2018-07-07T05:45:52.601Z,90.10
2018-07-07T05:46:56.112Z,90.30
2018-07-07T05:47:59.685Z,90.30
2018-07-07T05:49:03.288Z,90.40
2018-07-07T05:50:06.883Z,90.20
2018-07-07T05:51:10.294Z,90.40
2018-07-07T05:52:13.863Z,90.20
2018-07-07T05:53:17.724Z,90.20
2018-07-07T05:54:21.253Z,90.30
2018-07-07T05:55:24.776Z,90.40
2018-07-07T05:56:29.492Z,90.30
2018-07-07T05:57:33.067Z,90.00
2018-07-07T05:58:36.632Z,88.90
2018-07-07T05:59:40.147Z,88.20
2018-07-07T06:00:43.682Z,87.30
2018-07-07T06:01:47.191Z,86.80
2018-07-07T06:02:50.777Z,86.70
2018-07-07T06:03:54.325Z,87.10
2018-07-07T06:04:57.861Z,88.20
2018-07-07T06:06:01.472Z,87.60
2018-07-07T06:07:05.122Z,88.00
2018-07-07T06:08:08.744Z,87.90
2018-07-07T06:09:12.743Z,87.20
2018-07-07T06:10:16.327Z,85.70
2018-07-07T06:11:19.834Z,85.20
2018-07-07T06:12:23.375Z,85.10
2018-07-07T06:13:27.017Z,84.00
2018-07-07T06:14:30.657Z,83.10
2018-07-07T06:15:34.112Z,82.40
2018-07-07T06:16:37.650Z,81.80
2018-07-07T06:17:41.954Z,81.10
2018-07-07T06:18:45.509Z,81.30
2018-07-07T06:19:49.004Z,80.40
2018-07-07T06:20:52.640Z,80.80
2018-07-07T06:21:56.138Z,81.30
2018-07-07T06:22:59.607Z,81.60
2018-07-07T06:24:03.137Z,80.50
2018-07-07T06:25:07.781Z,80.30
2018-07-07T06:26:11.426Z,80.60
2018-07-07T06:27:15.162Z,80.20
2018-07-07T06:28:18.733Z,80.70
2018-07-07T06:29:22.298Z,80.90
2018-07-07T06:30:25.859Z,79.80
2018-07-07T06:31:29.930Z,78.70
2018-07-07T06:32:33.629Z,78.20
2018-07-07T06:33:37.126Z,77.10
2018-07-07T06:34:40.698Z,77.20
2018-07-07T06:35:44.443Z,76.40
2018-07-07T06:36:47.986Z,76.00
2018-07-07T06:37:51.533Z,75.60
2018-07-07T06:38:55.054Z,75.00
2018-07-07T06:39:58.585Z,74.10
2018-07-07T06:41:02.126Z,73.50
2018-07-07T06:42:05.696Z,73.50
2018-07-07T06:43:09.619Z,72.20
2018-07-07T06:44:13.407Z,73.40
2018-07-07T06:45:17.150Z,73.50
2018-07-07T06:46:20.692Z,74.30
2018-07-07T06:47:24.183Z,73.10
2018-07-07T06:48:27.755Z,73.30
2018-07-07T06:49:31.447Z,72.70
2018-07-07T06:50:34.970Z,71.30
2018-07-07T06:51:38.498Z,69.70
2018-07-07T06:52:42.318Z,68.40
2018-07-07T06:53:45.834Z,67.50
2018-07-07T06:54:49.365Z,66.90
2018-07-07T06:55:52.864Z,65.90
2018-07-07T06:56:56.364Z,64.50
2018-07-07T06:57:59.891Z,64.20
2018-07-07T06:59:03.397Z,64.00
2018-07-07T07:00:06.984Z,64.10
2018-07-07T07:01:10.590Z,64.30
2018-07-07T07:02:14.256Z,64.00
2018-07-07T07:03:17.822Z,63.90
2018-07-07T07:04:21.368Z,62.40
2018-07-07T07:05:24.980Z,62.20
2018-07-07T07:06:28.488Z,61.90
2018-07-07T07:07:32.096Z,62.40
2018-07-07T07:08:35.645Z,61.90
2018-07-07T07:09:43.863Z,61.70
2018-07-07T07:10:48.321Z,61.60
2018-07-07T07:12:55.047Z,60.10
2018-07-07T07:13:58.990Z,59.90
2018-07-07T07:15:02.492Z,60.00
2018-07-07T07:16:06.167Z,59.60
2018-07-07T07:17:09.763Z,59.80
2018-07-07T07:18:13.427Z,60.10
2018-07-07T07:19:16.977Z,58.40
2018-07-07T07:20:20.673Z,57.90
2018-07-07T07:21:24.326Z,58.40
2018-07-07T07:22:27.917Z,58.10
2018-07-07T07:23:31.584Z,57.00
2018-07-07T07:24:35.823Z,56.60
2018-07-07T07:25:39.353Z,56.40
2018-07-07T07:26:42.853Z,56.10
2018-07-07T07:27:46.353Z,55.90
2018-07-07T07:28:50.077Z,55.40
2018-07-07T07:29:53.530Z,55.00
2018-07-07T07:30:57.028Z,54.50
2018-07-07T07:32:00.564Z,53.80
2018-07-07T07:33:04.195Z,53.90
2018-07-07T07:34:07.790Z,54.50
2018-07-07T07:35:11.479Z,54.80
2018-07-07T07:36:15.206Z,55.50
2018-07-07T07:37:18.756Z,55.30
2018-07-07T07:38:22.468Z,55.80
2018-07-07T07:39:27.144Z,56.40
2018-07-07T07:40:31.115Z,56.50
2018-07-07T07:41:34.914Z,56.20
2018-07-07T07:42:38.423Z,56.30
2018-07-07T07:43:41.988Z,56.10
2018-07-07T07:44:45.498Z,56.10
2018-07-07T07:45:49.653Z,55.50
2018-07-07T07:46:53.606Z,55.60
2018-07-07T07:47:57.243Z,56.40
2018-07-07T07:49:00.818Z,55.50
2018-07-07T07:50:04.369Z,55.40
2018-07-07T07:51:08.119Z,55.80
2018-07-07T07:52:11.863Z,56.20
2018-07-07T07:53:15.331Z,56.40
2018-07-07T07:54:18.833Z,55.70
2018-07-07T07:55:22.484Z,55.90
2018-07-07T07:56:27.144Z,54.00
2018-07-07T07:57:30.721Z,53.50
2018-07-07T07:58:34.225Z,54.10
2018-07-07T07:59:37.688Z,52.10
2018-07-07T08:00:41.972Z,52.10
2018-07-07T08:01:46.265Z,52.00
2018-07-07T08:02:49.780Z,52.10
2018-07-07T08:03:53.283Z,52.40
2018-07-07T08:04:58.215Z,53.20
2018-07-07T08:06:01.729Z,53.10
2018-07-07T08:07:05.314Z,52.90
2018-07-07T08:08:08.851Z,53.60
2018-07-07T08:09:13.530Z,54.00
2018-07-07T08:10:17.054Z,54.30
2018-07-07T08:11:20.731Z,54.00
2018-07-07T08:12:24.377Z,53.80
2018-07-07T08:13:27.894Z,53.90
2018-07-07T08:14:31.409Z,54.00
2018-07-07T08:15:34.937Z,53.90
2018-07-07T08:16:38.606Z,52.70
2018-07-07T08:17:42.168Z,52.50
2018-07-07T08:18:45.777Z,53.00
2018-07-07T08:19:49.242Z,52.90
2018-07-07T08:20:52.757Z,52.80
2018-07-07T08:21:56.567Z,52.40
2018-07-07T08:23:00.218Z,52.30
2018-07-07T08:24:03.784Z,52.10
2018-07-07T08:25:07.347Z,52.00
2018-07-07T08:26:11.307Z,52.40
2018-07-07T08:27:15.598Z,52.70
2018-07-07T08:28:19.245Z,52.20
2018-07-07T08:30:26.218Z,51.20
2018-07-07T08:31:29.865Z,52.00
2018-07-07T08:32:33.353Z,52.50
2018-07-07T08:33:36.921Z,51.80
2018-07-07T08:34:40.459Z,51.60
2018-07-07T08:35:44.032Z,52.70
2018-07-07T08:36:47.562Z,52.00
2018-07-07T08:37:51.138Z,52.00
2018-07-07T08:38:54.696Z,52.00
2018-07-07T08:39:58.237Z,51.30
2018-07-07T08:42:05.117Z,50.90
2018-07-07T08:43:08.968Z,51.30
2018-07-07T08:44:13.604Z,51.70
2018-07-07T08:45:17.157Z,51.50
2018-07-07T08:46:20.669Z,51.70
2018-07-07T08:47:24.202Z,52.60
2018-07-07T08:48:27.771Z,53.60
2018-07-07T08:49:31.913Z,52.00
2018-07-07T08:51:55.811Z,53.60
2018-07-07T08:52:59.381Z,54.00
2018-07-07T08:54:02.944Z,55.00
2018-07-07T08:55:06.585Z,55.00
2018-07-07T08:56:10.378Z,55.80
2018-07-07T08:57:14.083Z,56.40
2018-07-07T08:58:17.597Z,56.50
2018-07-07T08:59:21.135Z,56.70
2018-07-07T09:00:24.707Z,57.20
2018-07-07T09:01:28.321Z,56.80
2018-07-07T09:02:31.922Z,57.20
2018-07-07T09:03:35.561Z,57.00
2018-07-07T09:04:39.182Z,55.90
2018-07-07T09:05:42.750Z,56.00
2018-07-07T09:06:46.354Z,55.80
2018-07-07T09:08:53.223Z,54.50
2018-07-07T09:09:56.893Z,54.50
2018-07-07T09:11:00.428Z,55.00
2018-07-07T09:12:04.015Z,56.80
2018-07-07T09:13:07.600Z,58.70
2018-07-07T09:14:11.253Z,60.00
2018-07-07T09:15:15.502Z,60.30
2018-07-07T09:16:19.105Z,60.30
2018-07-07T09:17:22.659Z,60.20
2018-07-07T09:18:26.251Z,60.10
2018-07-07T09:19:29.814Z,61.10
2018-07-07T09:20:33.352Z,61.40
2018-07-07T09:21:36.922Z,61.50
2018-07-07T09:22:40.396Z,61.70
2018-07-07T09:23:44.276Z,61.30
2018-07-07T09:24:48.006Z,61.20
2018-07-07T09:25:51.917Z,61.00
2018-07-07T09:26:55.654Z,59.50
2018-07-07T09:27:59.479Z,60.30
2018-07-07T09:29:03.406Z,59.20
2018-07-07T09:30:06.966Z,58.50
2018-07-07T09:31:11.086Z,57.50
2018-07-07T09:32:14.774Z,58.40
2018-07-07T09:33:18.348Z,56.60
2018-07-07T09:34:21.939Z,56.80
2018-07-07T09:35:25.895Z,58.90
2018-07-07T09:36:29.588Z,57.90
2018-07-07T09:37:33.173Z,56.80
2018-07-07T09:38:36.767Z,56.80
2018-07-07T09:39:40.409Z,56.90
2018-07-07T09:40:43.906Z,57.00
2018-07-07T09:41:47.683Z,56.80
2018-07-07T09:42:51.353Z,56.60
2018-07-07T09:43:54.933Z,55.70
2018-07-07T09:44:58.508Z,56.70
2018-07-07T09:46:02.165Z,57.40
2018-07-07T09:47:05.762Z,57.30
2018-07-07T09:48:09.313Z,57.40
2018-07-07T09:49:13.175Z,58.30
2018-07-07T09:50:16.897Z,57.20
2018-07-07T09:51:20.545Z,57.50
2018-07-07T09:52:24.103Z,58.00
2018-07-07T09:53:27.661Z,57.30
2018-07-07T09:54:31.214Z,58.60
2018-07-07T09:55:34.755Z,59.10
2018-07-07T09:56:38.362Z,59.10
2018-07-07T09:57:41.914Z,59.10
2018-07-07T09:58:45.580Z,60.50
2018-07-07T09:59:49.301Z,60.20
2018-07-07T10:00:52.871Z,60.80
2018-07-07T10:01:56.479Z,61.20
2018-07-07T10:02:59.959Z,61.50
2018-07-07T10:04:03.534Z,62.00
2018-07-07T10:05:07.290Z,61.60
2018-07-07T10:06:11.048Z,61.70
2018-07-07T10:07:14.647Z,62.70
2018-07-07T10:08:18.145Z,63.60
2018-07-07T10:09:21.742Z,64.00
2018-07-07T10:10:25.311Z,64.40
2018-07-07T10:11:28.936Z,64.90
2018-07-07T10:12:32.527Z,65.20
2018-07-07T10:13:36.152Z,65.50
2018-07-07T10:14:39.667Z,66.10
2018-07-07T10:15:43.211Z,65.40
2018-07-07T10:16:46.822Z,65.50
2018-07-07T10:17:50.407Z,66.60
2018-07-07T10:18:53.988Z,66.60
2018-07-07T10:19:57.560Z,65.60
2018-07-07T10:21:01.175Z,66.20
2018-07-07T10:22:04.791Z,66.80
2018-07-07T10:23:08.379Z,66.70
2018-07-07T10:24:12.082Z,68.30
2018-07-07T10:25:15.917Z,68.10
2018-07-07T10:26:19.502Z,67.20
2018-07-07T10:27:23.008Z,68.20
2018-07-07T10:28:26.534Z,70.10
2018-07-07T10:29:30.354Z,68.10
2018-07-07T10:30:33.961Z,68.20
2018-07-07T10:31:37.679Z,68.30
2018-07-07T10:32:41.256Z,68.40
2018-07-07T10:33:44.826Z,68.40
2018-07-07T10:34:48.397Z,69.50
2018-07-07T10:35:51.950Z,70.40
2018-07-07T10:36:55.510Z,70.40
2018-07-07T10:37:59.065Z,71.90
2018-07-07T10:39:02.687Z,71.20
2018-07-07T10:40:06.255Z,70.80
2018-07-07T10:41:09.887Z,70.10
2018-07-07T10:42:13.548Z,71.20
2018-07-07T10:43:17.073Z,72.70
2018-07-07T10:44:20.647Z,72.10
2018-07-07T10:45:24.241Z,72.20
2018-07-07T10:46:27.763Z,72.00
2018-07-07T10:47:31.712Z,72.50
2018-07-07T10:48:35.258Z,71.80
2018-07-07T10:49:38.805Z,70.80
2018-07-07T10:50:42.355Z,70.70
2018-07-07T10:51:45.951Z,70.90
2018-07-07T10:52:49.509Z,71.30
2018-07-07T10:53:53.220Z,71.00
2018-07-07T10:54:56.795Z,70.70
2018-07-07T10:56:00.374Z,69.30
2018-07-07T10:57:04.076Z,70.00
2018-07-07T10:58:07.624Z,69.40
2018-07-07T10:59:11.211Z,70.30
2018-07-07T11:00:14.796Z,70.30
2018-07-07T11:01:18.323Z,70.50
2018-07-07T11:02:21.914Z,69.50
2018-07-07T11:03:25.434Z,71.20
2018-07-07T11:04:29.171Z,71.30
2018-07-07T11:05:32.782Z,71.50
2018-07-07T11:06:36.330Z,70.70
2018-07-07T11:07:39.834Z,70.70
2018-07-07T11:08:43.512Z,71.10
2018-07-07T11:09:47.110Z,70.50
2018-07-07T11:10:50.713Z,69.10
2018-07-07T11:11:54.564Z,70.10
2018-07-07T11:12:57.937Z,71.30
2018-07-07T11:14:01.485Z,72.00
2018-07-07T11:15:05.112Z,71.50
2018-07-07T11:16:08.766Z,71.50
2018-07-07T11:17:12.647Z,71.80
2018-07-07T11:18:16.233Z,71.80
2018-07-07T11:19:19.974Z,70.30
2018-07-07T11:20:23.626Z,70.70
2018-07-07T11:21:27.433Z,71.40
2018-07-07T11:22:30.967Z,70.70
2018-07-07T11:23:34.585Z,71.20
2018-07-07T11:24:38.146Z,71.90
2018-07-07T11:25:41.685Z,72.30
2018-07-07T11:26:45.283Z,71.50
2018-07-07T11:27:49.119Z,71.50
2018-07-07T11:28:52.776Z,70.10
2018-07-07T11:29:56.311Z,70.50
2018-07-07T11:30:59.865Z,68.80
2018-07-07T11:32:03.429Z,68.50
2018-07-07T11:33:07.028Z,69.20
2018-07-07T11:34:10.872Z,68.70
2018-07-07T11:35:14.846Z,70.00
2018-07-07T11:36:18.508Z,69.80
2018-07-07T11:37:22.110Z,70.60
2018-07-07T11:38:25.805Z,70.00
2018-07-07T11:39:30.314Z,72.00
2018-07-07T11:40:34.182Z,71.50
2018-07-07T11:41:37.827Z,69.50
2018-07-07T11:42:42.033Z,70.20
2018-07-07T11:43:45.672Z,71.00
2018-07-07T11:44:49.278Z,71.30
2018-07-07T11:45:52.969Z,71.80
2018-07-07T11:46:56.572Z,71.40
2018-07-07T11:48:00.178Z,72.40
2018-07-07T11:49:03.787Z,72.50
2018-07-07T11:50:07.398Z,73.40
2018-07-07T11:51:11.497Z,74.30
2018-07-07T11:52:15.123Z,73.40
2018-07-07T11:54:21.881Z,73.40
2018-07-07T11:55:25.525Z,73.30
2018-07-07T11:56:29.150Z,73.90
2018-07-07T11:57:33.039Z,74.00
2018-07-07T11:58:36.688Z,74.30
2018-07-07T11:59:40.345Z,74.50
2018-07-07T12:00:43.966Z,74.70
2018-07-07T12:01:47.555Z,74.80
2018-07-07T12:02:51.246Z,73.50
2018-07-07T12:04:58.239Z,74.90
2018-07-07T12:06:01.870Z,74.80
2018-07-07T12:07:05.521Z,74.90
2018-07-07T12:08:13.871Z,73.60
2018-07-07T12:09:12.981Z,74.80
2018-07-07T12:10:16.570Z,75.40
2018-07-07T12:11:20.147Z,75.10
2018-07-07T12:12:23.738Z,74.50
2018-07-07T12:13:27.361Z,74.40
2018-07-07T12:14:31.053Z,74.90
2018-07-07T12:15:34.626Z,73.90
2018-07-07T12:16:38.237Z,73.80
2018-07-07T12:17:41.890Z,73.40
2018-07-07T12:18:45.489Z,73.60
2018-07-07T12:19:49.102Z,73.30
2018-07-07T12:20:52.987Z,71.60
2018-07-07T12:21:56.553Z,71.40
2018-07-07T12:23:00.199Z,73.40
2018-07-07T12:24:03.769Z,74.00
2018-07-07T12:25:07.378Z,74.20
2018-07-07T12:26:11.120Z,74.10
2018-07-07T12:27:14.826Z,73.40
2018-07-07T12:28:18.408Z,73.70
2018-07-07T12:29:21.981Z,72.90
2018-07-07T12:30:25.523Z,72.70
2018-07-07T12:31:29.310Z,73.20
2018-07-07T12:32:32.781Z,71.80
2018-07-07T12:33:36.375Z,72.50
2018-07-07T12:34:39.865Z,73.60
2018-07-07T12:35:43.386Z,73.60
2018-07-07T12:36:47.004Z,73.50
2018-07-07T12:37:50.672Z,73.90
2018-07-07T12:38:54.212Z,74.00
2018-07-07T12:39:57.778Z,73.50
2018-07-07T12:41:01.315Z,73.60
2018-07-07T12:42:04.879Z,74.00
2018-07-07T12:43:08.423Z,73.40
2018-07-07T12:44:12.100Z,73.50
2018-07-07T12:45:15.719Z,73.40
2018-07-07T12:46:19.251Z,73.00
2018-07-07T12:47:22.863Z,72.70
2018-07-07T12:48:26.944Z,73.10
2018-07-07T12:49:30.659Z,72.50
2018-07-07T12:50:34.194Z,71.80
2018-07-07T12:51:37.795Z,72.80
2018-07-07T12:52:41.325Z,71.60
2018-07-07T12:53:44.971Z,72.20
2018-07-07T12:54:48.630Z,72.80
2018-07-07T12:55:52.340Z,73.40
2018-07-07T12:56:55.974Z,73.80
2018-07-07T12:57:59.565Z,74.20
2018-07-07T12:59:03.170Z,74.30
2018-07-07T13:00:07.114Z,74.00
2018-07-07T13:01:10.802Z,74.00
2018-07-07T13:02:14.462Z,73.90
2018-07-07T13:03:18.116Z,74.00
2018-07-07T13:04:21.730Z,73.00
2018-07-07T13:05:25.436Z,72.70
2018-07-07T13:06:29.047Z,73.70
2018-07-07T13:07:32.931Z,74.30
2018-07-07T13:08:36.518Z,74.00
2018-07-07T13:09:40.036Z,74.30
2018-07-07T13:10:43.639Z,74.00
2018-07-07T13:11:47.357Z,74.60
2018-07-07T13:12:50.901Z,74.10
2018-07-07T13:13:54.490Z,74.20
2018-07-07T13:14:58.135Z,74.50
2018-07-07T13:16:01.741Z,74.20
2018-07-07T13:17:05.432Z,74.50
2018-07-07T13:18:09.034Z,73.20
2018-07-07T13:19:12.793Z,73.00
2018-07-07T13:20:16.309Z,73.00
2018-07-07T13:21:19.870Z,73.20
2018-07-07T13:22:23.383Z,73.60
2018-07-07T13:23:26.905Z,73.10
2018-07-07T13:24:30.430Z,73.30
2018-07-07T13:25:33.918Z,73.00
2018-07-07T13:26:37.559Z,73.90
2018-07-07T13:27:41.030Z,74.50
2018-07-07T13:28:44.565Z,74.10
2018-07-07T13:29:48.088Z,74.50
2018-07-07T13:30:51.637Z,73.90
2018-07-07T13:31:55.157Z,74.80
2018-07-07T13:32:58.729Z,75.10
2018-07-07T13:34:02.423Z,74.80
2018-07-07T13:36:09.207Z,74.30
2018-07-07T13:37:12.870Z,74.10
2018-07-07T13:38:16.445Z,74.00
2018-07-07T13:39:19.998Z,73.90
2018-07-07T13:40:23.505Z,73.80
2018-07-07T13:41:27.064Z,73.20
2018-07-07T13:42:30.678Z,72.60
2018-07-07T13:43:34.248Z,72.50
2018-07-07T13:44:37.859Z,72.70
2018-07-07T13:45:41.562Z,72.80
2018-07-07T13:46:45.327Z,73.00
2018-07-07T13:47:49.042Z,72.40
2018-07-07T13:48:52.743Z,72.70
2018-07-07T13:49:56.425Z,73.00
2018-07-07T13:50:59.955Z,72.70
2018-07-07T13:52:03.621Z,73.00
2018-07-07T13:53:07.352Z,72.30
2018-07-07T13:54:11.139Z,73.10
2018-07-07T13:55:14.873Z,72.90
2018-07-07T13:56:18.577Z,71.20
2018-07-07T13:57:22.194Z,71.40
2018-07-07T13:58:26.058Z,71.40
2018-07-07T13:59:30.070Z,72.10